sensor_id;sensor_type;location;lat;lon;timestamp;P1;durP1;ratioP1;P2;durP2;ratioP2
80936;SDS011;70395;51.382;7.074;2023-06-14T00:01:52;9.43;;;8.00;;
80936;SDS011;70395;51.382;7.074;2023-06-14T00:04:17;9.30;;;7.47;;
80936;SDS011;70395;51.382;7.074;2023-06-14T00:06:45;9.33;;;7.50;;
80936;SDS011;70395;51.382;7.074;2023-06-14T00:09:12;8.43;;;7.47;;
80936;SDS011;70395;51.382;7.074;2023-06-14T00:11:38;8.17;;;7.30;;
80936;SDS011;70395;51.382;7.074;2023-06-14T00:14:07;9.07;;;7.83;;
80936;SDS011;70395;51.382;7.074;2023-06-14T00:16:33;9.10;;;7.90;;
80936;SDS011;70395;51.382;7.074;2023-06-14T00:19:00;9.80;;;7.90;;
80936;SDS011;70395;51.382;7.074;2023-06-14T00:21:28;11.67;;;6.83;;
80936;SDS011;70395;51.382;7.074;2023-06-14T00:23:55;8.00;;;7.20;;
80936;SDS011;70395;51.382;7.074;2023-06-14T00:26:23;8.47;;;7.30;;
80936;SDS011;70395;51.382;7.074;2023-06-14T00:28:50;10.97;;;7.77;;
80936;SDS011;70395;51.382;7.074;2023-06-14T00:31:16;9.13;;;7.63;;
80936;SDS011;70395;51.382;7.074;2023-06-14T00:33:42;8.70;;;7.90;;
80936;SDS011;70395;51.382;7.074;2023-06-14T00:36:08;9.60;;;8.10;;
80936;SDS011;70395;51.382;7.074;2023-06-14T00:38:33;10.53;;;7.83;;
80936;SDS011;70395;51.382;7.074;2023-06-14T00:41:00;7.60;;;6.70;;
80936;SDS011;70395;51.382;7.074;2023-06-14T00:43:25;9.43;;;7.40;;
80936;SDS011;70395;51.382;7.074;2023-06-14T00:45:51;9.83;;;8.20;;
80936;SDS011;70395;51.382;7.074;2023-06-14T00:48:17;9.40;;;7.90;;
80936;SDS011;70395;51.382;7.074;2023-06-14T00:50:44;8.00;;;7.20;;
80936;SDS011;70395;51.382;7.074;2023-06-14T00:53:11;8.77;;;7.87;;
80936;SDS011;70395;51.382;7.074;2023-06-14T00:55:40;9.30;;;7.67;;
80936;SDS011;70395;51.382;7.074;2023-06-14T00:58:06;9.57;;;7.70;;
80936;SDS011;70395;51.382;7.074;2023-06-14T01:00:33;8.40;;;7.60;;
80936;SDS011;70395;51.382;7.074;2023-06-14T01:02:59;9.37;;;8.47;;
80936;SDS011;70395;51.382;7.074;2023-06-14T01:05:26;10.67;;;8.50;;
80936;SDS011;70395;51.382;7.074;2023-06-14T01:16:00;9.13;;;8.23;;
80936;SDS011;70395;51.382;7.074;2023-06-14T01:18:28;13.43;;;7.53;;
80936;SDS011;70395;51.382;7.074;2023-06-14T01:20:54;13.27;;;7.70;;
80936;SDS011;70395;51.382;7.074;2023-06-14T01:23:22;9.77;;;8.47;;
80936;SDS011;70395;51.382;7.074;2023-06-14T01:25:49;8.87;;;7.87;;
80936;SDS011;70395;51.382;7.074;2023-06-14T01:28:18;9.60;;;7.03;;
80936;SDS011;70395;51.382;7.074;2023-06-14T01:30:47;10.07;;;8.97;;
80936;SDS011;70395;51.382;7.074;2023-06-14T01:33:18;10.63;;;8.33;;
80936;SDS011;70395;51.382;7.074;2023-06-14T01:35:47;7.60;;;6.90;;
80936;SDS011;70395;51.382;7.074;2023-06-14T01:38:17;8.67;;;7.77;;
80936;SDS011;70395;51.382;7.074;2023-06-14T01:40:46;7.70;;;7.00;;
80936;SDS011;70395;51.382;7.074;2023-06-14T01:43:16;9.77;;;8.20;;
80936;SDS011;70395;51.382;7.074;2023-06-14T01:45:44;9.03;;;8.13;;
80936;SDS011;70395;51.382;7.074;2023-06-14T01:48:13;8.40;;;7.60;;
80936;SDS011;70395;51.382;7.074;2023-06-14T01:50:40;8.30;;;7.60;;
80936;SDS011;70395;51.382;7.074;2023-06-14T01:53:07;10.63;;;8.03;;
80936;SDS011;70395;51.382;7.074;2023-06-14T01:55:35;8.60;;;7.83;;
80936;SDS011;70395;51.382;7.074;2023-06-14T01:58:05;8.90;;;7.87;;
80936;SDS011;70395;51.382;7.074;2023-06-14T02:00:31;7.90;;;7.10;;
80936;SDS011;70395;51.382;7.074;2023-06-14T02:02:57;11.40;;;7.53;;
80936;SDS011;70395;51.382;7.074;2023-06-14T02:05:23;11.67;;;8.90;;
80936;SDS011;70395;51.382;7.074;2023-06-14T02:07:49;7.90;;;7.20;;
80936;SDS011;70395;51.382;7.074;2023-06-14T02:10:15;9.33;;;8.10;;
80936;SDS011;70395;51.382;7.074;2023-06-14T02:12:42;9.83;;;8.70;;
80936;SDS011;70395;51.382;7.074;2023-06-14T02:15:08;10.30;;;8.07;;
80936;SDS011;70395;51.382;7.074;2023-06-14T02:17:41;8.20;;;7.30;;
80936;SDS011;70395;51.382;7.074;2023-06-14T02:20:17;9.10;;;7.60;;
80936;SDS011;70395;51.382;7.074;2023-06-14T02:22:43;8.47;;;7.37;;
80936;SDS011;70395;51.382;7.074;2023-06-14T02:25:10;8.50;;;7.37;;
80936;SDS011;70395;51.382;7.074;2023-06-14T02:27:36;8.63;;;7.70;;
80936;SDS011;70395;51.382;7.074;2023-06-14T02:30:01;7.50;;;6.80;;
80936;SDS011;70395;51.382;7.074;2023-06-14T02:32:28;8.70;;;7.90;;
80936;SDS011;70395;51.382;7.074;2023-06-14T02:34:53;8.07;;;6.77;;
80936;SDS011;70395;51.382;7.074;2023-06-14T02:37:19;7.80;;;6.47;;
80936;SDS011;70395;51.382;7.074;2023-06-14T02:39:45;13.60;;;9.30;;
80936;SDS011;70395;51.382;7.074;2023-06-14T02:42:11;9.40;;;8.40;;
80936;SDS011;70395;51.382;7.074;2023-06-14T02:44:37;8.73;;;7.70;;
80936;SDS011;70395;51.382;7.074;2023-06-14T02:47:04;8.50;;;7.60;;
80936;SDS011;70395;51.382;7.074;2023-06-14T02:49:30;11.63;;;8.97;;
80936;SDS011;70395;51.382;7.074;2023-06-14T02:51:56;12.40;;;8.27;;
80936;SDS011;70395;51.382;7.074;2023-06-14T02:54:22;8.57;;;7.67;;
80936;SDS011;70395;51.382;7.074;2023-06-14T02:56:47;9.10;;;7.70;;
80936;SDS011;70395;51.382;7.074;2023-06-14T02:59:13;8.73;;;6.90;;
80936;SDS011;70395;51.382;7.074;2023-06-14T03:01:40;8.23;;;7.43;;
80936;SDS011;70395;51.382;7.074;2023-06-14T03:04:09;8.10;;;7.30;;
80936;SDS011;70395;51.382;7.074;2023-06-14T03:06:35;8.47;;;7.27;;
80936;SDS011;70395;51.382;7.074;2023-06-14T03:09:02;7.87;;;7.07;;
80936;SDS011;70395;51.382;7.074;2023-06-14T03:11:34;13.17;;;8.17;;
80936;SDS011;70395;51.382;7.074;2023-06-14T03:14:00;8.30;;;7.33;;
80936;SDS011;70395;51.382;7.074;2023-06-14T03:16:28;9.93;;;8.13;;
80936;SDS011;70395;51.382;7.074;2023-06-14T03:18:55;9.37;;;8.00;;
80936;SDS011;70395;51.382;7.074;2023-06-14T03:21:21;10.20;;;8.23;;
80936;SDS011;70395;51.382;7.074;2023-06-14T03:23:47;8.03;;;7.23;;
80936;SDS011;70395;51.382;7.074;2023-06-14T03:26:14;8.13;;;7.20;;
80936;SDS011;70395;51.382;7.074;2023-06-14T03:28:43;7.80;;;6.70;;
80936;SDS011;70395;51.382;7.074;2023-06-14T03:31:14;10.40;;;8.73;;
80936;SDS011;70395;51.382;7.074;2023-06-14T03:33:41;8.37;;;7.53;;
80936;SDS011;70395;51.382;7.074;2023-06-14T03:36:07;13.53;;;9.00;;
80936;SDS011;70395;51.382;7.074;2023-06-14T03:38:33;8.50;;;7.60;;
80936;SDS011;70395;51.382;7.074;2023-06-14T03:40:59;9.40;;;7.97;;
80936;SDS011;70395;51.382;7.074;2023-06-14T03:43:25;21.97;;;8.70;;
80936;SDS011;70395;51.382;7.074;2023-06-14T03:45:51;7.53;;;6.83;;
80936;SDS011;70395;51.382;7.074;2023-06-14T03:48:17;8.63;;;7.80;;
80936;SDS011;70395;51.382;7.074;2023-06-14T03:50:43;8.50;;;7.70;;
80936;SDS011;70395;51.382;7.074;2023-06-14T03:53:10;7.10;;;6.40;;
80936;SDS011;70395;51.382;7.074;2023-06-14T03:55:36;8.93;;;7.50;;
80936;SDS011;70395;51.382;7.074;2023-06-14T03:58:02;8.80;;;7.53;;
80936;SDS011;70395;51.382;7.074;2023-06-14T04:00:29;8.33;;;6.83;;
80936;SDS011;70395;51.382;7.074;2023-06-14T04:02:55;10.00;;;7.87;;
80936;SDS011;70395;51.382;7.074;2023-06-14T04:05:21;12.17;;;6.73;;
80936;SDS011;70395;51.382;7.074;2023-06-14T04:07:46;9.90;;;7.40;;
80936;SDS011;70395;51.382;7.074;2023-06-14T04:10:13;8.27;;;7.47;;
80936;SDS011;70395;51.382;7.074;2023-06-14T04:12:41;9.07;;;7.60;;
80936;SDS011;70395;51.382;7.074;2023-06-14T04:15:08;10.07;;;8.37;;
80936;SDS011;70395;51.382;7.074;2023-06-14T04:17:34;8.90;;;7.13;;
80936;SDS011;70395;51.382;7.074;2023-06-14T04:20:02;9.43;;;8.17;;
80936;SDS011;70395;51.382;7.074;2023-06-14T04:22:30;8.13;;;7.30;;
80936;SDS011;70395;51.382;7.074;2023-06-14T04:24:56;10.80;;;7.83;;
80936;SDS011;70395;51.382;7.074;2023-06-14T04:27:24;10.70;;;8.30;;
80936;SDS011;70395;51.382;7.074;2023-06-14T04:29:52;10.33;;;7.87;;
80936;SDS011;70395;51.382;7.074;2023-06-14T04:32:27;8.53;;;7.20;;
80936;SDS011;70395;51.382;7.074;2023-06-14T04:35:03;12.10;;;7.30;;
80936;SDS011;70395;51.382;7.074;2023-06-14T04:37:33;12.47;;;8.50;;
80936;SDS011;70395;51.382;7.074;2023-06-14T04:40:00;17.17;;;8.20;;
80936;SDS011;70395;51.382;7.074;2023-06-14T04:42:26;10.27;;;8.07;;
80936;SDS011;70395;51.382;7.074;2023-06-14T04:44:55;11.33;;;8.10;;
80936;SDS011;70395;51.382;7.074;2023-06-14T04:47:22;8.10;;;7.33;;
80936;SDS011;70395;51.382;7.074;2023-06-14T04:49:50;10.83;;;7.43;;
80936;SDS011;70395;51.382;7.074;2023-06-14T04:52:18;15.83;;;7.50;;
80936;SDS011;70395;51.382;7.074;2023-06-14T04:54:46;9.23;;;8.30;;
80936;SDS011;70395;51.382;7.074;2023-06-14T04:57:12;9.03;;;7.90;;
80936;SDS011;70395;51.382;7.074;2023-06-14T04:59:39;11.23;;;8.13;;
80936;SDS011;70395;51.382;7.074;2023-06-14T05:02:05;10.20;;;8.50;;
80936;SDS011;70395;51.382;7.074;2023-06-14T05:04:32;8.47;;;7.50;;
80936;SDS011;70395;51.382;7.074;2023-06-14T05:06:58;8.73;;;7.40;;
80936;SDS011;70395;51.382;7.074;2023-06-14T05:09:24;6.97;;;6.27;;
80936;SDS011;70395;51.382;7.074;2023-06-14T05:11:50;11.30;;;6.60;;
80936;SDS011;70395;51.382;7.074;2023-06-14T05:14:16;8.33;;;6.80;;
80936;SDS011;70395;51.382;7.074;2023-06-14T05:16:43;14.90;;;7.00;;
80936;SDS011;70395;51.382;7.074;2023-06-14T05:19:09;7.30;;;6.60;;
80936;SDS011;70395;51.382;7.074;2023-06-14T05:21:35;9.80;;;6.47;;
80936;SDS011;70395;51.382;7.074;2023-06-14T05:24:02;7.03;;;5.90;;
80936;SDS011;70395;51.382;7.074;2023-06-14T05:26:28;8.40;;;6.40;;
80936;SDS011;70395;51.382;7.074;2023-06-14T05:28:55;15.83;;;7.07;;
80936;SDS011;70395;51.382;7.074;2023-06-14T05:31:22;20.00;;;7.13;;
80936;SDS011;70395;51.382;7.074;2023-06-14T05:33:51;9.53;;;7.00;;
80936;SDS011;70395;51.382;7.074;2023-06-14T05:36:17;10.50;;;6.70;;
80936;SDS011;70395;51.382;7.074;2023-06-14T05:38:45;8.03;;;6.30;;
80936;SDS011;70395;51.382;7.074;2023-06-14T05:41:10;9.10;;;6.50;;
80936;SDS011;70395;51.382;7.074;2023-06-14T05:43:36;7.90;;;6.43;;
80936;SDS011;70395;51.382;7.074;2023-06-14T05:46:02;9.90;;;5.97;;
80936;SDS011;70395;51.382;7.074;2023-06-14T05:48:29;7.67;;;6.17;;
80936;SDS011;70395;51.382;7.074;2023-06-14T05:50:56;9.50;;;6.67;;
80936;SDS011;70395;51.382;7.074;2023-06-14T05:53:22;9.60;;;6.30;;
80936;SDS011;70395;51.382;7.074;2023-06-14T05:55:49;12.03;;;6.73;;
80936;SDS011;70395;51.382;7.074;2023-06-14T05:58:18;7.30;;;5.80;;
80936;SDS011;70395;51.382;7.074;2023-06-14T06:00:44;8.53;;;6.30;;
80936;SDS011;70395;51.382;7.074;2023-06-14T06:03:10;9.10;;;5.27;;
80936;SDS011;70395;51.382;7.074;2023-06-14T06:05:38;8.90;;;6.37;;
80936;SDS011;70395;51.382;7.074;2023-06-14T06:08:04;7.10;;;5.67;;
80936;SDS011;70395;51.382;7.074;2023-06-14T06:10:30;6.83;;;5.90;;
80936;SDS011;70395;51.382;7.074;2023-06-14T06:12:56;8.17;;;5.70;;
80936;SDS011;70395;51.382;7.074;2023-06-14T06:15:22;6.53;;;5.83;;
80936;SDS011;70395;51.382;7.074;2023-06-14T06:17:48;10.10;;;6.30;;
80936;SDS011;70395;51.382;7.074;2023-06-14T06:20:14;7.83;;;5.83;;
80936;SDS011;70395;51.382;7.074;2023-06-14T06:22:39;10.80;;;5.40;;
80936;SDS011;70395;51.382;7.074;2023-06-14T06:25:05;8.27;;;5.50;;
80936;SDS011;70395;51.382;7.074;2023-06-14T06:27:32;9.40;;;4.83;;
80936;SDS011;70395;51.382;7.074;2023-06-14T06:29:58;6.47;;;4.47;;
80936;SDS011;70395;51.382;7.074;2023-06-14T06:32:24;6.20;;;4.77;;
80936;SDS011;70395;51.382;7.074;2023-06-14T06:34:50;8.67;;;4.93;;
80936;SDS011;70395;51.382;7.074;2023-06-14T06:37:16;7.13;;;4.53;;
80936;SDS011;70395;51.382;7.074;2023-06-14T06:39:42;5.23;;;4.70;;
80936;SDS011;70395;51.382;7.074;2023-06-14T06:42:08;5.20;;;4.73;;
80936;SDS011;70395;51.382;7.074;2023-06-14T06:44:35;5.07;;;4.50;;
80936;SDS011;70395;51.382;7.074;2023-06-14T06:47:01;6.83;;;4.63;;
80936;SDS011;70395;51.382;7.074;2023-06-14T06:49:27;6.53;;;3.87;;
80936;SDS011;70395;51.382;7.074;2023-06-14T06:52:03;4.90;;;4.20;;
80936;SDS011;70395;51.382;7.074;2023-06-14T06:54:31;6.57;;;3.47;;
80936;SDS011;70395;51.382;7.074;2023-06-14T06:56:57;3.67;;;3.30;;
80936;SDS011;70395;51.382;7.074;2023-06-14T06:59:24;4.47;;;3.23;;
80936;SDS011;70395;51.382;7.074;2023-06-14T07:01:50;3.50;;;3.20;;
80936;SDS011;70395;51.382;7.074;2023-06-14T07:04:15;9.43;;;3.60;;
80936;SDS011;70395;51.382;7.074;2023-06-14T07:06:42;5.07;;;3.33;;
80936;SDS011;70395;51.382;7.074;2023-06-14T07:09:08;5.53;;;3.03;;
80936;SDS011;70395;51.382;7.074;2023-06-14T07:11:40;4.47;;;2.70;;
80936;SDS011;70395;51.382;7.074;2023-06-14T07:14:10;3.10;;;2.80;;
80936;SDS011;70395;51.382;7.074;2023-06-14T07:16:36;4.20;;;3.07;;
80936;SDS011;70395;51.382;7.074;2023-06-14T07:19:02;4.27;;;3.10;;
80936;SDS011;70395;51.382;7.074;2023-06-14T07:21:29;5.43;;;2.87;;
80936;SDS011;70395;51.382;7.074;2023-06-14T07:23:55;4.00;;;2.90;;
80936;SDS011;70395;51.382;7.074;2023-06-14T07:26:21;3.47;;;2.70;;
80936;SDS011;70395;51.382;7.074;2023-06-14T07:28:48;3.53;;;2.53;;
80936;SDS011;70395;51.382;7.074;2023-06-14T07:31:17;3.00;;;2.67;;
80936;SDS011;70395;51.382;7.074;2023-06-14T07:33:44;3.00;;;2.30;;
80936;SDS011;70395;51.382;7.074;2023-06-14T07:36:10;4.47;;;2.67;;
80936;SDS011;70395;51.382;7.074;2023-06-14T07:38:36;3.80;;;2.60;;
80936;SDS011;70395;51.382;7.074;2023-06-14T07:41:02;4.90;;;3.03;;
80936;SDS011;70395;51.382;7.074;2023-06-14T07:43:28;6.60;;;3.90;;
80936;SDS011;70395;51.382;7.074;2023-06-14T07:45:54;7.27;;;3.10;;
80936;SDS011;70395;51.382;7.074;2023-06-14T07:48:22;7.77;;;2.90;;
80936;SDS011;70395;51.382;7.074;2023-06-14T07:50:47;3.80;;;3.10;;
80936;SDS011;70395;51.382;7.074;2023-06-14T07:53:13;3.70;;;2.90;;
80936;SDS011;70395;51.382;7.074;2023-06-14T07:55:39;3.60;;;2.83;;
80936;SDS011;70395;51.382;7.074;2023-06-14T07:58:09;3.97;;;2.90;;
80936;SDS011;70395;51.382;7.074;2023-06-14T08:00:35;4.33;;;2.77;;
80936;SDS011;70395;51.382;7.074;2023-06-14T08:03:01;3.53;;;2.77;;
80936;SDS011;70395;51.382;7.074;2023-06-14T08:05:28;3.40;;;2.80;;
80936;SDS011;70395;51.382;7.074;2023-06-14T08:07:54;5.57;;;3.07;;
80936;SDS011;70395;51.382;7.074;2023-06-14T08:10:20;5.60;;;2.87;;
80936;SDS011;70395;51.382;7.074;2023-06-14T08:12:47;4.40;;;3.00;;
80936;SDS011;70395;51.382;7.074;2023-06-14T08:15:15;7.90;;;2.40;;
80936;SDS011;70395;51.382;7.074;2023-06-14T08:17:44;3.17;;;2.87;;
80936;SDS011;70395;51.382;7.074;2023-06-14T08:20:11;5.17;;;2.80;;
80936;SDS011;70395;51.382;7.074;2023-06-14T08:22:38;8.17;;;3.37;;
80936;SDS011;70395;51.382;7.074;2023-06-14T08:25:07;6.80;;;3.13;;
80936;SDS011;70395;51.382;7.074;2023-06-14T08:27:34;5.90;;;2.60;;
80936;SDS011;70395;51.382;7.074;2023-06-14T08:30:00;7.13;;;2.90;;
80936;SDS011;70395;51.382;7.074;2023-06-14T08:32:27;3.90;;;3.30;;
80936;SDS011;70395;51.382;7.074;2023-06-14T08:34:53;5.40;;;2.70;;
80936;SDS011;70395;51.382;7.074;2023-06-14T08:37:19;4.10;;;2.30;;
80936;SDS011;70395;51.382;7.074;2023-06-14T08:39:45;4.93;;;2.67;;
80936;SDS011;70395;51.382;7.074;2023-06-14T08:42:11;3.57;;;2.50;;
80936;SDS011;70395;51.382;7.074;2023-06-14T08:44:39;3.70;;;2.50;;
80936;SDS011;70395;51.382;7.074;2023-06-14T08:47:06;2.80;;;2.60;;
80936;SDS011;70395;51.382;7.074;2023-06-14T08:49:33;5.60;;;2.33;;
80936;SDS011;70395;51.382;7.074;2023-06-14T08:52:03;2.70;;;2.13;;
80936;SDS011;70395;51.382;7.074;2023-06-14T08:54:35;3.10;;;2.33;;
80936;SDS011;70395;51.382;7.074;2023-06-14T08:57:08;4.70;;;2.50;;
80936;SDS011;70395;51.382;7.074;2023-06-14T08:59:40;3.50;;;2.30;;
80936;SDS011;70395;51.382;7.074;2023-06-14T09:02:17;3.30;;;2.27;;
80936;SDS011;70395;51.382;7.074;2023-06-14T09:04:47;4.00;;;2.23;;
80936;SDS011;70395;51.382;7.074;2023-06-14T09:07:14;3.60;;;2.53;;
80936;SDS011;70395;51.382;7.074;2023-06-14T09:09:41;2.97;;;2.63;;
80936;SDS011;70395;51.382;7.074;2023-06-14T09:12:10;6.23;;;2.27;;
80936;SDS011;70395;51.382;7.074;2023-06-14T09:14:37;3.20;;;2.37;;
80936;SDS011;70395;51.382;7.074;2023-06-14T09:17:05;3.07;;;2.73;;
80936;SDS011;70395;51.382;7.074;2023-06-14T09:19:31;3.17;;;2.60;;
80936;SDS011;70395;51.382;7.074;2023-06-14T09:21:59;3.63;;;2.73;;
80936;SDS011;70395;51.382;7.074;2023-06-14T09:24:25;3.30;;;2.70;;
80936;SDS011;70395;51.382;7.074;2023-06-14T09:26:51;3.20;;;2.30;;
80936;SDS011;70395;51.382;7.074;2023-06-14T09:29:20;2.43;;;2.23;;
80936;SDS011;70395;51.382;7.074;2023-06-14T09:31:46;4.37;;;2.30;;
80936;SDS011;70395;51.382;7.074;2023-06-14T09:34:12;2.60;;;2.40;;
80936;SDS011;70395;51.382;7.074;2023-06-14T09:36:39;3.07;;;2.40;;
80936;SDS011;70395;51.382;7.074;2023-06-14T09:39:08;2.67;;;2.40;;
80936;SDS011;70395;51.382;7.074;2023-06-14T09:41:35;3.23;;;1.90;;
80936;SDS011;70395;51.382;7.074;2023-06-14T09:44:06;3.10;;;1.90;;
80936;SDS011;70395;51.382;7.074;2023-06-14T09:46:33;2.00;;;1.80;;
80936;SDS011;70395;51.382;7.074;2023-06-14T09:49:01;2.13;;;1.93;;
80936;SDS011;70395;51.382;7.074;2023-06-14T09:51:28;2.50;;;2.20;;
80936;SDS011;70395;51.382;7.074;2023-06-14T09:54:02;8.90;;;2.60;;
80936;SDS011;70395;51.382;7.074;2023-06-14T09:56:33;3.20;;;1.90;;
80936;SDS011;70395;51.382;7.074;2023-06-14T09:59:04;3.73;;;2.17;;
80936;SDS011;70395;51.382;7.074;2023-06-14T10:01:34;3.40;;;2.20;;
80936;SDS011;70395;51.382;7.074;2023-06-14T10:04:07;3.97;;;2.50;;
80936;SDS011;70395;51.382;7.074;2023-06-14T10:06:45;3.37;;;1.90;;
80936;SDS011;70395;51.382;7.074;2023-06-14T10:09:11;2.17;;;1.90;;
80936;SDS011;70395;51.382;7.074;2023-06-14T10:11:38;3.63;;;1.60;;
80936;SDS011;70395;51.382;7.074;2023-06-14T10:14:10;2.80;;;1.40;;
80936;SDS011;70395;51.382;7.074;2023-06-14T10:19:50;2.43;;;1.50;;
80936;SDS011;70395;51.382;7.074;2023-06-14T10:22:29;2.23;;;1.70;;
80936;SDS011;70395;51.382;7.074;2023-06-14T10:25:06;3.23;;;1.87;;
80936;SDS011;70395;51.382;7.074;2023-06-14T10:27:36;3.20;;;2.20;;
80936;SDS011;70395;51.382;7.074;2023-06-14T10:30:03;3.63;;;1.57;;
80936;SDS011;70395;51.382;7.074;2023-06-14T10:32:32;3.20;;;1.80;;
80936;SDS011;70395;51.382;7.074;2023-06-14T10:34:59;3.13;;;2.47;;
80936;SDS011;70395;51.382;7.074;2023-06-14T10:37:30;3.37;;;1.93;;
80936;SDS011;70395;51.382;7.074;2023-06-14T10:39:57;4.70;;;1.97;;
80936;SDS011;70395;51.382;7.074;2023-06-14T10:42:23;4.40;;;1.60;;
80936;SDS011;70395;51.382;7.074;2023-06-14T10:45:01;2.90;;;1.93;;
80936;SDS011;70395;51.382;7.074;2023-06-14T10:47:29;4.27;;;2.30;;
80936;SDS011;70395;51.382;7.074;2023-06-14T10:50:09;2.23;;;1.90;;
80936;SDS011;70395;51.382;7.074;2023-06-14T10:52:38;3.70;;;1.70;;
80936;SDS011;70395;51.382;7.074;2023-06-14T10:55:13;3.63;;;1.90;;
80936;SDS011;70395;51.382;7.074;2023-06-14T11:00:16;2.27;;;1.63;;
80936;SDS011;70395;51.382;7.074;2023-06-14T11:05:56;3.20;;;2.10;;
80936;SDS011;70395;51.382;7.074;2023-06-14T11:10:54;2.53;;;1.87;;
80936;SDS011;70395;51.382;7.074;2023-06-14T11:13:25;1.90;;;1.67;;
80936;SDS011;70395;51.382;7.074;2023-06-14T11:15:52;2.70;;;2.00;;
80936;SDS011;70395;51.382;7.074;2023-06-14T11:18:19;2.20;;;1.80;;
80936;SDS011;70395;51.382;7.074;2023-06-14T11:20:49;3.20;;;1.60;;
80936;SDS011;70395;51.382;7.074;2023-06-14T11:23:15;3.13;;;1.87;;
80936;SDS011;70395;51.382;7.074;2023-06-14T11:25:41;1.80;;;1.70;;
80936;SDS011;70395;51.382;7.074;2023-06-14T11:28:07;2.40;;;1.93;;
80936;SDS011;70395;51.382;7.074;2023-06-14T11:30:33;3.27;;;1.77;;
80936;SDS011;70395;51.382;7.074;2023-06-14T11:32:59;3.03;;;1.80;;
80936;SDS011;70395;51.382;7.074;2023-06-14T11:35:25;3.20;;;1.53;;
80936;SDS011;70395;51.382;7.074;2023-06-14T11:37:55;3.43;;;1.63;;
80936;SDS011;70395;51.382;7.074;2023-06-14T11:40:25;2.10;;;1.43;;
80936;SDS011;70395;51.382;7.074;2023-06-14T11:42:59;1.43;;;1.33;;
80936;SDS011;70395;51.382;7.074;2023-06-14T11:45:26;2.50;;;1.83;;
80936;SDS011;70395;51.382;7.074;2023-06-14T11:47:54;2.20;;;1.97;;
80936;SDS011;70395;51.382;7.074;2023-06-14T11:50:23;2.17;;;1.60;;
80936;SDS011;70395;51.382;7.074;2023-06-14T11:55:22;1.50;;;1.40;;
80936;SDS011;70395;51.382;7.074;2023-06-14T11:57:49;2.60;;;1.63;;
80936;SDS011;70395;51.382;7.074;2023-06-14T12:00:15;3.43;;;2.20;;
80936;SDS011;70395;51.382;7.074;2023-06-14T12:02:42;2.80;;;1.80;;
80936;SDS011;70395;51.382;7.074;2023-06-14T12:05:20;2.10;;;1.90;;
80936;SDS011;70395;51.382;7.074;2023-06-14T12:07:47;2.63;;;2.00;;
80936;SDS011;70395;51.382;7.074;2023-06-14T12:10:15;2.17;;;1.63;;
80936;SDS011;70395;51.382;7.074;2023-06-14T12:12:42;2.53;;;2.33;;
80936;SDS011;70395;51.382;7.074;2023-06-14T12:15:08;3.37;;;2.47;;
80936;SDS011;70395;51.382;7.074;2023-06-14T12:17:37;2.10;;;1.87;;
80936;SDS011;70395;51.382;7.074;2023-06-14T12:20:11;3.67;;;2.27;;
80936;SDS011;70395;51.382;7.074;2023-06-14T12:22:58;5.03;;;2.17;;
80936;SDS011;70395;51.382;7.074;2023-06-14T12:25:26;2.73;;;2.30;;
80936;SDS011;70395;51.382;7.074;2023-06-14T12:28:05;2.40;;;2.20;;
80936;SDS011;70395;51.382;7.074;2023-06-14T12:30:34;3.90;;;2.33;;
80936;SDS011;70395;51.382;7.074;2023-06-14T12:33:02;4.37;;;2.63;;
80936;SDS011;70395;51.382;7.074;2023-06-14T12:35:29;2.17;;;1.97;;
80936;SDS011;70395;51.382;7.074;2023-06-14T12:37:55;2.83;;;2.03;;
80936;SDS011;70395;51.382;7.074;2023-06-14T12:40:21;5.10;;;2.30;;
80936;SDS011;70395;51.382;7.074;2023-06-14T12:42:48;4.53;;;2.30;;
80936;SDS011;70395;51.382;7.074;2023-06-14T12:45:14;2.90;;;2.50;;
80936;SDS011;70395;51.382;7.074;2023-06-14T12:47:40;3.43;;;2.47;;
80936;SDS011;70395;51.382;7.074;2023-06-14T12:50:07;3.47;;;2.37;;
80936;SDS011;70395;51.382;7.074;2023-06-14T12:52:33;4.20;;;2.50;;
80936;SDS011;70395;51.382;7.074;2023-06-14T12:55:03;3.63;;;2.43;;
80936;SDS011;70395;51.382;7.074;2023-06-14T12:57:29;3.13;;;2.60;;
80936;SDS011;70395;51.382;7.074;2023-06-14T12:59:55;3.87;;;2.50;;
80936;SDS011;70395;51.382;7.074;2023-06-14T13:02:21;3.20;;;2.37;;
80936;SDS011;70395;51.382;7.074;2023-06-14T13:04:49;2.23;;;2.03;;
80936;SDS011;70395;51.382;7.074;2023-06-14T13:07:15;2.63;;;2.43;;
80936;SDS011;70395;51.382;7.074;2023-06-14T13:09:41;2.80;;;2.60;;
80936;SDS011;70395;51.382;7.074;2023-06-14T13:12:09;2.90;;;2.60;;
80936;SDS011;70395;51.382;7.074;2023-06-14T13:14:39;3.03;;;2.17;;
80936;SDS011;70395;51.382;7.074;2023-06-14T13:17:07;3.00;;;2.40;;
80936;SDS011;70395;51.382;7.074;2023-06-14T13:19:35;2.97;;;2.43;;
80936;SDS011;70395;51.382;7.074;2023-06-14T13:22:01;4.87;;;2.80;;
80936;SDS011;70395;51.382;7.074;2023-06-14T13:24:27;3.60;;;3.00;;
80936;SDS011;70395;51.382;7.074;2023-06-14T13:26:54;4.03;;;2.67;;
80936;SDS011;70395;51.382;7.074;2023-06-14T13:29:22;3.40;;;3.10;;
80936;SDS011;70395;51.382;7.074;2023-06-14T13:31:49;3.43;;;2.40;;
80936;SDS011;70395;51.382;7.074;2023-06-14T13:34:14;4.30;;;2.33;;
80936;SDS011;70395;51.382;7.074;2023-06-14T13:36:40;3.70;;;2.77;;
80936;SDS011;70395;51.382;7.074;2023-06-14T13:39:06;2.60;;;2.40;;
80936;SDS011;70395;51.382;7.074;2023-06-14T13:41:32;2.80;;;2.50;;
80936;SDS011;70395;51.382;7.074;2023-06-14T13:43:59;2.93;;;2.53;;
80936;SDS011;70395;51.382;7.074;2023-06-14T13:46:28;2.77;;;2.57;;
80936;SDS011;70395;51.382;7.074;2023-06-14T13:48:55;3.50;;;2.50;;
80936;SDS011;70395;51.382;7.074;2023-06-14T13:51:20;4.43;;;2.60;;
80936;SDS011;70395;51.382;7.074;2023-06-14T13:53:47;3.83;;;2.67;;
80936;SDS011;70395;51.382;7.074;2023-06-14T13:56:14;4.73;;;2.40;;
80936;SDS011;70395;51.382;7.074;2023-06-14T13:58:40;4.53;;;2.33;;
80936;SDS011;70395;51.382;7.074;2023-06-14T14:01:06;3.40;;;2.33;;
80936;SDS011;70395;51.382;7.074;2023-06-14T14:03:33;4.40;;;2.63;;
80936;SDS011;70395;51.382;7.074;2023-06-14T14:06:03;3.40;;;2.47;;
80936;SDS011;70395;51.382;7.074;2023-06-14T14:08:30;5.97;;;2.87;;
80936;SDS011;70395;51.382;7.074;2023-06-14T14:10:56;2.90;;;2.43;;
80936;SDS011;70395;51.382;7.074;2023-06-14T14:13:22;2.73;;;2.30;;
80936;SDS011;70395;51.382;7.074;2023-06-14T14:15:48;3.10;;;2.53;;
80936;SDS011;70395;51.382;7.074;2023-06-14T14:18:14;3.83;;;2.97;;
80936;SDS011;70395;51.382;7.074;2023-06-14T14:20:40;2.90;;;2.40;;
80936;SDS011;70395;51.382;7.074;2023-06-14T14:23:06;5.67;;;2.80;;
80936;SDS011;70395;51.382;7.074;2023-06-14T14:25:32;2.80;;;2.40;;
80936;SDS011;70395;51.382;7.074;2023-06-14T14:27:57;2.80;;;2.60;;
80936;SDS011;70395;51.382;7.074;2023-06-14T14:30:23;2.97;;;2.77;;
80936;SDS011;70395;51.382;7.074;2023-06-14T14:32:50;2.60;;;2.40;;
80936;SDS011;70395;51.382;7.074;2023-06-14T14:35:16;6.40;;;2.80;;
80936;SDS011;70395;51.382;7.074;2023-06-14T14:37:43;3.77;;;3.03;;
80936;SDS011;70395;51.382;7.074;2023-06-14T14:40:09;3.87;;;3.57;;
80936;SDS011;70395;51.382;7.074;2023-06-14T14:42:36;5.33;;;3.13;;
80936;SDS011;70395;51.382;7.074;2023-06-14T14:45:02;4.43;;;2.70;;
80936;SDS011;70395;51.382;7.074;2023-06-14T14:47:29;3.07;;;2.70;;
80936;SDS011;70395;51.382;7.074;2023-06-14T14:49:54;5.13;;;3.30;;
80936;SDS011;70395;51.382;7.074;2023-06-14T14:52:20;3.20;;;2.53;;
80936;SDS011;70395;51.382;7.074;2023-06-14T14:54:46;4.50;;;3.20;;
80936;SDS011;70395;51.382;7.074;2023-06-14T14:57:12;3.00;;;2.70;;
80936;SDS011;70395;51.382;7.074;2023-06-14T14:59:37;2.83;;;2.53;;
80936;SDS011;70395;51.382;7.074;2023-06-14T15:02:03;3.00;;;2.70;;
80936;SDS011;70395;51.382;7.074;2023-06-14T15:04:29;4.00;;;2.90;;
80936;SDS011;70395;51.382;7.074;2023-06-14T15:06:55;3.03;;;2.83;;
80936;SDS011;70395;51.382;7.074;2023-06-14T15:09:22;3.43;;;3.03;;